Time;durP1;ratioP1;P1;durP2;ratioP2;P2;SDS_P1;SDS_P2;PMS_P1;PMS_P2;Temp;Humidity;BMP_temperature;BMP_pressure;BME280_temperature;BME280_humidity;BME280_pressure;Samples;Min_cycle;Max_cycle;Signal;HPM_P1;HPM_P2
2021/11/19 00:01:58;;;;;;;14.43;6.45;;;;;;;;;;6220770;23;20330;-92
2021/11/19 00:04:25;;;;;;;13.25;6.63;;;;;;;;;;6221020;23;20007;-92
2021/11/19 00:06:52;;;;;;;15.50;6.95;;;;;;;;;;6220940;23;20083;-92
2021/11/19 00:09:18;;;;;;;15.02;7.13;;;;;;;;;;6220963;23;20329;-93
2021/11/19 00:11:46;;;;;;;13.15;6.72;;;;;;;;;;6220695;23;20004;-92
2021/11/19 00:14:12;;;;;;;14.80;7.20;;;;;;;;;;6220781;23;20008;-93
2021/11/19 00:16:40;;;;;;;16.77;8.05;;;;;;;;;;6247220;23;20012;-92
2021/11/19 00:19:07;;;;;;;13.05;6.38;;;;;;;;;;6220799;23;20090;-93
2021/11/19 00:21:35;;;;;;;14.27;6.93;;;;;;;;;;6221908;23;20011;-92
2021/11/19 00:24:02;;;;;;;13.35;6.60;;;;;;;;;;6223363;23;20038;-92
2021/11/19 00:26:29;;;;;;;13.02;7.25;;;;;;;;;;6223024;23;20051;-92
2021/11/19 00:28:55;;;;;;;12.75;6.45;;;;;;;;;;6223323;23;20087;-93
2021/11/19 00:31:23;;;;;;;10.80;6.30;;;;;;;;;;6225520;23;20035;-91
2021/11/19 00:33:51;;;;;;;15.18;7.00;;;;;;;;;;6250757;22;19984;-86
2021/11/19 00:36:18;;;;;;;15.52;6.72;;;;;;;;;;6276760;22;20023;-85
2021/11/19 00:38:45;;;;;;;13.93;7.57;;;;;;;;;;6240319;23;20008;-92
2021/11/19 00:41:12;;;;;;;16.88;7.05;;;;;;;;;;6222653;23;20375;-91
2021/11/19 00:43:39;;;;;;;14.77;7.80;;;;;;;;;;6222555;23;20010;-90
2021/11/19 00:46:05;;;;;;;14.23;6.72;;;;;;;;;;6222562;23;20031;-93
2021/11/19 00:48:32;;;;;;;12.82;7.43;;;;;;;;;;6222469;23;20004;-92
2021/11/19 00:51:01;;;;;;;12.98;6.82;;;;;;;;;;6222422;23;20016;-92
2021/11/19 00:53:27;;;;;;;12.18;7.20;;;;;;;;;;6222247;23;20071;-91
2021/11/19 00:55:54;;;;;;;12.38;7.13;;;;;;;;;;6222436;23;20008;-92
2021/11/19 00:58:21;;;;;;;11.88;7.15;;;;;;;;;;6222712;23;20007;-93
2021/11/19 01:00:49;;;;;;;13.23;7.18;;;;;;;;;;6222059;23;20008;-91
2021/11/19 01:03:16;;;;;;;14.25;7.10;;;;;;;;;;6222711;23;20015;-92
2021/11/19 01:05:42;;;;;;;13.82;7.93;;;;;;;;;;6222212;23;20004;-93
2021/11/19 01:08:09;;;;;;;10.65;6.90;;;;;;;;;;6222280;23;20008;-93
2021/11/19 01:10:36;;;;;;;18.30;6.50;;;;;;;;;;6221939;23;20079;-93
2021/11/19 01:13:03;;;;;;;12.18;6.95;;;;;;;;;;6222681;23;20007;-93
2021/11/19 01:15:35;;;;;;;15.73;7.50;;;;;;;;;;6222340;23;20004;-92
2021/11/19 01:18:13;;;;;;;11.80;6.90;;;;;;;;;;6222018;23;20341;-94
2021/11/19 01:20:45;;;;;;;14.05;6.47;;;;;;;;;;6248910;23;20032;-93
2021/11/19 01:23:12;;;;;;;12.60;6.38;;;;;;;;;;6222608;23;20008;-92
2021/11/19 01:25:41;;;;;;;12.82;6.60;;;;;;;;;;6222222;23;20051;-94
2021/11/19 01:28:08;;;;;;;10.15;6.18;;;;;;;;;;6221798;23;20112;-94
2021/11/19 01:30:36;;;;;;;11.75;6.15;;;;;;;;;;6222520;23;20008;-93
2021/11/19 01:33:04;;;;;;;11.57;6.45;;;;;;;;;;6221541;23;20004;-93
2021/11/19 01:35:31;;;;;;;11.82;6.60;;;;;;;;;;6221926;23;20004;-93
2021/11/19 01:37:57;;;;;;;11.68;6.55;;;;;;;;;;6222261;23;20437;-94
2021/11/19 01:40:26;;;;;;;10.35;5.57;;;;;;;;;;6221676;23;20016;-92
2021/11/19 01:42:54;;;;;;;12.85;6.53;;;;;;;;;;6221816;23;20007;-92
2021/11/19 01:45:34;;;;;;;10.68;5.40;;;;;;;;;;6222377;23;20008;-91
2021/11/19 01:48:00;;;;;;;10.30;6.10;;;;;;;;;;6222406;23;20011;-92
2021/11/19 01:50:32;;;;;;;10.95;5.75;;;;;;;;;;6221881;23;20138;-92
2021/11/19 01:53:16;;;;;;;13.57;6.85;;;;;;;;;;6224528;23;20011;-92
2021/11/19 01:55:48;;;;;;;11.68;5.70;;;;;;;;;;6221665;23;20008;-92
2021/11/19 01:58:17;;;;;;;11.38;5.75;;;;;;;;;;6223206;23;20012;-91
2021/11/19 02:00:45;;;;;;;10.75;5.47;;;;;;;;;;6221820;23;20098;-92
2021/11/19 02:03:13;;;;;;;9.45;5.57;;;;;;;;;;6221604;23;20062;-92
2021/11/19 02:05:40;;;;;;;10.93;5.85;;;;;;;;;;6221623;23;20008;-93
2021/11/19 02:08:10;;;;;;;10.43;5.78;;;;;;;;;;6221714;23;20035;-93
2021/11/19 02:10:44;;;;;;;10.25;5.25;;;;;;;;;;6221739;23;20008;-92
2021/11/19 02:13:29;;;;;;;10.60;5.85;;;;;;;;;;6222099;23;20430;-92
2021/11/19 02:16:00;;;;;;;11.15;4.97;;;;;;;;;;6248306;23;20337;-92
2021/11/19 02:18:32;;;;;;;10.88;6.07;;;;;;;;;;6222968;23;20358;-92
2021/11/19 02:21:02;;;;;;;10.57;5.75;;;;;;;;;;6222006;23;20050;-92
2021/11/19 02:23:38;;;;;;;9.55;5.20;;;;;;;;;;6221686;23;20378;-92
2021/11/19 02:26:14;;;;;;;8.23;4.90;;;;;;;;;;6221640;23;20004;-91
2021/11/19 02:28:41;;;;;;;11.20;5.53;;;;;;;;;;6221380;23;20043;-93
2021/11/19 02:31:15;;;;;;;10.80;5.18;;;;;;;;;;6221641;23;20060;-92
2021/11/19 02:33:42;;;;;;;10.70;5.65;;;;;;;;;;6221732;23;20091;-92
2021/11/19 02:36:12;;;;;;;10.00;5.63;;;;;;;;;;6221408;23;20054;-92
2021/11/19 02:38:47;;;;;;;8.57;4.80;;;;;;;;;;6222334;23;20397;-92
2021/11/19 02:41:15;;;;;;;10.43;5.25;;;;;;;;;;6230531;23;20050;-91
2021/11/19 02:43:46;;;;;;;9.00;5.05;;;;;;;;;;6244209;23;20015;-92
2021/11/19 02:46:18;;;;;;;11.95;5.13;;;;;;;;;;6240829;23;20054;-91
2021/11/19 02:48:44;;;;;;;10.00;5.43;;;;;;;;;;6248747;23;20056;-91
2021/11/19 02:51:11;;;;;;;9.75;5.22;;;;;;;;;;6248743;22;20034;-88
2021/11/19 02:53:39;;;;;;;12.23;5.38;;;;;;;;;;6241522;23;20016;-93
2021/11/19 02:56:06;;;;;;;10.98;5.30;;;;;;;;;;6221003;23;20042;-91
2021/11/19 02:58:34;;;;;;;9.60;5.40;;;;;;;;;;6221175;23;20008;-92
2021/11/19 03:01:07;;;;;;;14.55;5.70;;;;;;;;;;6221585;23;20012;-91
2021/11/19 03:03:34;;;;;;;10.27;5.43;;;;;;;;;;6222109;23;20489;-91
2021/11/19 03:06:01;;;;;;;9.85;5.45;;;;;;;;;;6221159;23;20005;-91
2021/11/19 03:08:27;;;;;;;9.48;5.00;;;;;;;;;;6220955;23;20100;-91
2021/11/19 03:10:55;;;;;;;9.20;5.40;;;;;;;;;;6221092;23;20441;-92
2021/11/19 03:13:23;;;;;;;11.63;6.32;;;;;;;;;;6220778;23;20099;-91
2021/11/19 03:15:50;;;;;;;9.43;5.50;;;;;;;;;;6247584;23;20453;-93
2021/11/19 03:18:17;;;;;;;9.65;5.22;;;;;;;;;;6220850;23;20043;-92
2021/11/19 03:20:45;;;;;;;10.93;5.50;;;;;;;;;;6247615;23;20003;-92
2021/11/19 03:23:11;;;;;;;9.63;5.07;;;;;;;;;;6222207;23;20406;-92
2021/11/19 03:25:39;;;;;;;9.00;5.25;;;;;;;;;;6222399;23;20044;-92
2021/11/19 03:28:06;;;;;;;9.75;5.97;;;;;;;;;;6221018;23;20426;-92
2021/11/19 03:30:33;;;;;;;9.68;5.82;;;;;;;;;;6220619;23;20008;-92
2021/11/19 03:33:00;;;;;;;11.45;6.03;;;;;;;;;;6220768;23;20000;-92
2021/11/19 03:35:27;;;;;;;9.48;5.75;;;;;;;;;;6248292;23;20034;-92
2021/11/19 03:37:54;;;;;;;9.60;5.68;;;;;;;;;;6220682;23;20460;-91
2021/11/19 03:40:22;;;;;;;11.07;6.10;;;;;;;;;;6220558;23;20019;-90
2021/11/19 03:42:50;;;;;;;10.77;5.97;;;;;;;;;;6220809;23;20004;-94
2021/11/19 03:45:17;;;;;;;10.45;5.63;;;;;;;;;;6220716;23;20078;-92
2021/11/19 03:47:45;;;;;;;9.75;5.25;;;;;;;;;;6220780;23;20024;-91
2021/11/19 03:50:15;;;;;;;9.98;5.50;;;;;;;;;;6221094;23;20008;-92
2021/11/19 03:52:42;;;;;;;9.82;5.55;;;;;;;;;;6220822;23;20004;-94
2021/11/19 03:55:14;;;;;;;9.32;4.95;;;;;;;;;;6220607;23;20067;-91
2021/11/19 03:57:40;;;;;;;11.27;5.50;;;;;;;;;;6221835;23;20043;-92
2021/11/19 04:00:12;;;;;;;11.75;5.95;;;;;;;;;;6220651;23;20430;-91
2021/11/19 04:02:39;;;;;;;9.88;5.15;;;;;;;;;;6221046;23;20004;-92
2021/11/19 04:05:06;;;;;;;11.05;5.82;;;;;;;;;;6220831;23;20000;-91
2021/11/19 04:07:33;;;;;;;11.50;5.97;;;;;;;;;;6247748;23;20008;-92
2021/11/19 04:09:59;;;;;;;13.30;6.47;;;;;;;;;;6220793;23;20000;-93
2021/11/19 04:12:26;;;;;;;12.70;6.07;;;;;;;;;;6220604;23;20061;-92
2021/11/19 04:14:53;;;;;;;10.90;6.30;;;;;;;;;;6221239;23;20005;-93
2021/11/19 04:17:20;;;;;;;9.65;5.25;;;;;;;;;;6220850;23;20016;-93
2021/11/19 04:19:47;;;;;;;10.75;6.40;;;;;;;;;;6222780;23;20095;-93
2021/11/19 04:22:15;;;;;;;9.55;5.65;;;;;;;;;;6220805;23;20001;-94
2021/11/19 04:24:49;;;;;;;12.82;6.07;;;;;;;;;;6221034;23;20008;-93
2021/11/19 04:27:15;;;;;;;9.77;6.05;;;;;;;;;;6221932;23;20004;-92
2021/11/19 04:29:42;;;;;;;10.98;6.00;;;;;;;;;;6221084;23;20495;-93
2021/11/19 04:32:09;;;;;;;11.07;6.20;;;;;;;;;;6220676;23;20426;-94
2021/11/19 04:34:36;;;;;;;12.75;6.72;;;;;;;;;;6220831;23;20008;-92
2021/11/19 04:37:02;;;;;;;12.38;6.25;;;;;;;;;;6221982;23;20018;-94
2021/11/19 04:39:28;;;;;;;11.35;6.50;;;;;;;;;;6222105;23;20043;-95
2021/11/19 04:41:55;;;;;;;11.40;5.63;;;;;;;;;;6222276;23;20345;-95
2021/11/19 04:44:22;;;;;;;11.38;5.75;;;;;;;;;;6196124;23;20039;-95
2021/11/19 04:46:49;;;;;;;11.07;5.95;;;;;;;;;;6196983;23;20032;-94
2021/11/19 04:49:15;;;;;;;11.90;6.40;;;;;;;;;;6221392;23;20043;-96
2021/11/19 04:51:42;;;;;;;11.50;5.63;;;;;;;;;;6220732;23;20056;-95
2021/11/19 04:54:10;;;;;;;11.10;6.05;;;;;;;;;;6221988;23;20004;-94
2021/11/19 04:56:38;;;;;;;10.65;5.75;;;;;;;;;;6218191;23;20074;-95
2021/11/19 04:59:05;;;;;;;11.38;5.32;;;;;;;;;;6221645;23;20008;-95
2021/11/19 05:01:33;;;;;;;11.23;5.72;;;;;;;;;;6228492;23;20012;-94
2021/11/19 05:03:59;;;;;;;10.25;5.55;;;;;;;;;;6243065;23;20004;-95
2021/11/19 05:06:26;;;;;;;12.43;5.82;;;;;;;;;;6247419;22;19999;-91
2021/11/19 05:08:54;;;;;;;10.73;5.63;;;;;;;;;;6232737;23;20004;-94
2021/11/19 05:11:26;;;;;;;9.30;5.43;;;;;;;;;;6222627;23;20027;-95
2021/11/19 05:13:52;;;;;;;10.57;5.82;;;;;;;;;;6222866;23;20008;-95
2021/11/19 05:16:20;;;;;;;10.90;5.55;;;;;;;;;;6222318;23;20009;-95
2021/11/19 05:18:47;;;;;;;10.45;5.47;;;;;;;;;;6222504;23;20012;-95
2021/11/19 05:21:15;;;;;;;8.43;5.65;;;;;;;;;;6222670;23;20004;-95
2021/11/19 05:23:41;;;;;;;8.85;5.38;;;;;;;;;;6222122;23;20011;-94
2021/11/19 05:26:10;;;;;;;13.02;5.65;;;;;;;;;;6197649;23;20019;-95
2021/11/19 05:28:36;;;;;;;8.75;5.22;;;;;;;;;;6222877;23;20004;-94
2021/11/19 05:31:04;;;;;;;10.68;5.55;;;;;;;;;;6222539;23;20024;-95
2021/11/19 05:41:54;;;;;;;12.35;6.03;;;;;;;;;;6247244;22;20026;-85
2021/11/19 05:44:22;;;;;;;12.57;5.57;;;;;;;;;;6244648;23;19997;-84
2021/11/19 05:52:01;;;;;;;10.25;5.78;;;;;;;;;;6249782;22;20014;-82
2021/11/19 05:59:39;;;;;;;12.57;6.00;;;;;;;;;;6235158;23;20005;-92
2021/11/19 06:02:06;;;;;;;11.75;6.28;;;;;;;;;;6216354;23;20008;-93
2021/11/19 06:04:32;;;;;;;11.20;6.18;;;;;;;;;;6217227;23;20012;-85
2021/11/19 06:09:52;;;;;;;11.55;6.75;;;;;;;;;;6222218;22;20075;-94
2021/11/19 06:12:25;;;;;;;10.52;5.80;;;;;;;;;;6197264;23;20005;-96
2021/11/19 06:14:56;;;;;;;12.57;6.78;;;;;;;;;;6198245;23;20001;-96
2021/11/19 06:17:38;;;;;;;11.55;6.63;;;;;;;;;;6200348;23;20024;-92
2021/11/19 06:20:07;;;;;;;12.27;6.00;;;;;;;;;;6180531;23;20011;-95
2021/11/19 06:22:35;;;;;;;12.82;7.32;;;;;;;;;;6200818;23;20088;-96
2021/11/19 06:25:01;;;;;;;14.18;7.30;;;;;;;;;;6201042;23;20477;-96
2021/11/19 06:27:34;;;;;;;12.65;6.82;;;;;;;;;;6229277;23;20004;-96
2021/11/19 06:30:02;;;;;;;12.43;7.07;;;;;;;;;;6206065;23;20005;-96
2021/11/19 06:32:28;;;;;;;12.40;7.00;;;;;;;;;;6235067;23;20093;-96
2021/11/19 06:34:54;;;;;;;10.98;6.38;;;;;;;;;;6242019;23;19989;-92
2021/11/19 06:37:21;;;;;;;12.27;6.47;;;;;;;;;;6242612;23;20077;-90
2021/11/19 06:39:48;;;;;;;14.02;7.43;;;;;;;;;;6239602;22;20005;-95
2021/11/19 06:42:15;;;;;;;14.88;7.45;;;;;;;;;;6227634;23;20022;-96
2021/11/19 06:44:42;;;;;;;12.73;6.60;;;;;;;;;;6170791;23;20426;-95
2021/11/19 06:47:09;;;;;;;12.35;6.38;;;;;;;;;;6196463;23;20008;-96
2021/11/19 06:49:35;;;;;;;13.52;7.25;;;;;;;;;;6197424;23;20005;-96
2021/11/19 06:52:02;;;;;;;13.27;6.72;;;;;;;;;;6201102;23;20024;-96
2021/11/19 06:54:29;;;;;;;14.13;6.88;;;;;;;;;;6193944;23;20005;-96
2021/11/19 06:56:55;;;;;;;16.30;7.65;;;;;;;;;;6195945;23;20027;-96
2021/11/19 06:59:22;;;;;;;12.40;6.63;;;;;;;;;;6195610;23;20009;-96
2021/11/19 07:01:49;;;;;;;11.68;6.28;;;;;;;;;;6177279;23;20030;-96
2021/11/19 07:04:23;;;;;;;12.65;6.53;;;;;;;;;;6208532;22;20650;-96
2021/11/19 07:06:50;;;;;;;13.07;6.72;;;;;;;;;;6270873;22;20007;-96
2021/11/19 07:09:26;;;;;;;14.77;6.43;;;;;;;;;;6258350;22;20016;-96
2021/11/19 07:11:55;;;;;;;14.68;6.97;;;;;;;;;;6231130;23;20147;-96
2021/11/19 07:17:11;;;;;;;15.73;6.95;;;;;;;;;;6261513;23;20004;-96
2021/11/19 07:19:39;;;;;;;12.73;6.38;;;;;;;;;;6245357;22;20042;-95
2021/11/19 07:22:05;;;;;;;12.75;6.95;;;;;;;;;;6247561;22;20835;-93
2021/11/19 07:24:34;;;;;;;13.35;7.22;;;;;;;;;;6230899;23;20079;-96
2021/11/19 07:27:00;;;;;;;11.82;6.50;;;;;;;;;;6209660;23;20044;-96
2021/11/19 07:29:26;;;;;;;12.30;6.78;;;;;;;;;;6229928;23;20008;-96
2021/11/19 07:31:53;;;;;;;14.07;7.38;;;;;;;;;;6228212;23;20059;-94
2021/11/19 07:34:45;;;;;;;12.80;6.85;;;;;;;;;;6228225;23;20081;-96
2021/11/19 07:37:50;;;;;;;14.25;6.43;;;;;;;;;;6223906;23;20046;-94
2021/11/19 07:40:49;;;;;;;14.05;6.97;;;;;;;;;;6251139;23;20012;-96
2021/11/19 07:43:17;;;;;;;13.07;7.10;;;;;;;;;;6229397;23;20015;-95
2021/11/19 07:45:46;;;;;;;14.65;8.07;;;;;;;;;;6227631;23;20004;-94
2021/11/19 07:48:32;;;;;;;15.60;7.25;;;;;;;;;;6205630;23;20008;-96
2021/11/19 07:51:00;;;;;;;13.60;7.43;;;;;;;;;;6229024;23;20028;-95
2021/11/19 07:53:26;;;;;;;13.98;7.50;;;;;;;;;;6226149;23;20083;-96
2021/11/19 07:55:53;;;;;;;17.92;7.28;;;;;;;;;;6225828;23;20036;-95
2021/11/19 07:58:20;;;;;;;16.65;7.47;;;;;;;;;;6227194;23;20012;-96
2021/11/19 08:00:49;;;;;;;12.75;7.88;;;;;;;;;;6226349;23;20000;-93
2021/11/19 08:03:19;;;;;;;14.40;7.45;;;;;;;;;;6222787;23;20070;-96
2021/11/19 08:05:48;;;;;;;12.35;6.75;;;;;;;;;;6202128;23;20004;-93
2021/11/19 08:08:15;;;;;;;11.95;6.90;;;;;;;;;;6225970;23;20004;-96
2021/11/19 08:10:41;;;;;;;11.63;6.97;;;;;;;;;;6253223;23;20008;-93
2021/11/19 08:13:09;;;;;;;15.18;6.80;;;;;;;;;;6229951;23;20004;-96
2021/11/19 08:15:37;;;;;;;11.32;6.63;;;;;;;;;;6252809;23;20008;-95
2021/11/19 08:18:12;;;;;;;11.77;6.10;;;;;;;;;;6228940;23;20020;-96
2021/11/19 08:20:44;;;;;;;13.52;6.85;;;;;;;;;;6257363;23;20043;-96
2021/11/19 08:23:13;;;;;;;12.20;6.40;;;;;;;;;;6258115;23;20008;-96
2021/11/19 08:25:42;;;;;;;11.63;6.28;;;;;;;;;;6232846;23;20060;-96
2021/11/19 08:28:08;;;;;;;11.02;6.75;;;;;;;;;;6204185;23;20012;-96
2021/11/19 08:30:38;;;;;;;10.98;6.70;;;;;;;;;;6226409;23;20005;-95
2021/11/19 08:33:24;;;;;;;11.48;6.57;;;;;;;;;;6225581;23;20004;-94
2021/11/19 08:36:08;;;;;;;;;;;;;;;;;;6254906;23;20004;-94
2021/11/19 08:38:35;;;;;;;10.25;6.07;;;;;;;;;;6253263;23;19899;-96
2021/11/19 08:41:03;;;;;;;10.50;6.47;;;;;;;;;;6251981;23;20011;-96
2021/11/19 08:43:33;;;;;;;12.23;6.50;;;;;;;;;;6200129;23;20042;-94
2021/11/19 08:46:03;;;;;;;10.77;6.43;;;;;;;;;;6257507;23;20122;-94
2021/11/19 08:48:30;;;;;;;11.15;7.18;;;;;;;;;;6254461;23;19996;-93
2021/11/19 08:50:58;;;;;;;11.82;6.55;;;;;;;;;;6252661;23;20075;-95
2021/11/19 08:53:25;;;;;;;10.77;6.80;;;;;;;;;;6227003;23;20005;-92
2021/11/19 08:55:54;;;;;;;12.15;6.75;;;;;;;;;;6223434;23;20385;-94
2021/11/19 08:58:21;;;;;;;12.63;5.95;;;;;;;;;;6223306;23;20012;-93
2021/11/19 09:00:48;;;;;;;12.55;6.50;;;;;;;;;;6224983;23;20060;-93
2021/11/19 09:03:14;;;;;;;10.48;5.80;;;;;;;;;;6223921;23;20161;-93
2021/11/19 09:05:41;;;;;;;11.45;6.22;;;;;;;;;;6224417;23;20004;-95
2021/11/19 09:08:12;;;;;;;15.07;6.55;;;;;;;;;;6224093;23;20034;-95
2021/11/19 09:10:39;;;;;;;14.15;6.40;;;;;;;;;;6198779;23;20012;-93
2021/11/19 09:13:05;;;;;;;13.50;6.57;;;;;;;;;;6198930;23;20011;-93
2021/11/19 09:15:32;;;;;;;9.82;5.80;;;;;;;;;;6228482;23;20004;-95
2021/11/19 09:18:28;;;;;;;9.77;5.80;;;;;;;;;;6253685;23;20008;-93
2021/11/19 09:21:02;;;;;;;9.65;5.35;;;;;;;;;;6173466;23;20060;-91
2021/11/19 09:23:30;;;;;;;8.60;4.95;;;;;;;;;;6227803;23;20001;-91
2021/11/19 09:25:59;;;;;;;13.57;5.68;;;;;;;;;;6203414;23;20507;-95
2021/11/19 09:28:27;;;;;;;8.73;5.35;;;;;;;;;;6228910;23;20004;-95
2021/11/19 09:31:06;;;;;;;12.27;5.70;;;;;;;;;;6227576;23;20008;-95
2021/11/19 09:33:36;;;;;;;9.50;5.75;;;;;;;;;;6229511;23;20000;-96
2021/11/19 09:36:12;;;;;;;10.68;5.82;;;;;;;;;;6273903;22;20003;-95
2021/11/19 09:38:38;;;;;;;8.50;5.07;;;;;;;;;;6246962;22;20027;-94
2021/11/19 09:41:24;;;;;;;8.52;5.10;;;;;;;;;;6245302;22;20008;-95
2021/11/19 09:44:05;;;;;;;9.23;5.38;;;;;;;;;;6228799;23;20043;-95
2021/11/19 09:46:58;;;;;;;7.75;4.75;;;;;;;;;;6227711;23;20004;-96
2021/11/19 09:49:25;;;;;;;8.38;4.68;;;;;;;;;;6219652;23;20004;-95
2021/11/19 09:51:51;;;;;;;10.13;5.65;;;;;;;;;;6226863;23;20444;-95
2021/11/19 09:54:23;;;;;;;10.35;5.68;;;;;;;;;;6226158;23;20008;-94
2021/11/19 09:57:01;;;;;;;9.50;5.03;;;;;;;;;;6225790;23;20386;-95
2021/11/19 09:59:47;;;;;;;9.98;5.72;;;;;;;;;;6227435;23;20000;-96
2021/11/19 10:02:43;;;;;;;9.80;5.20;;;;;;;;;;6224774;23;20019;-94
2021/11/19 10:05:09;;;;;;;7.63;4.68;;;;;;;;;;6214137;23;20000;-94
2021/11/19 10:07:35;;;;;;;9.18;5.00;;;;;;;;;;6226076;23;20008;-93
2021/11/19 10:10:20;;;;;;;7.35;4.78;;;;;;;;;;6200882;23;20017;-95
2021/11/19 10:13:05;;;;;;;10.40;5.85;;;;;;;;;;6195600;23;20005;-94
2021/11/19 10:15:43;;;;;;;8.32;5.22;;;;;;;;;;6195424;23;20088;-96
2021/11/19 10:18:30;;;;;;;9.20;5.95;;;;;;;;;;6196684;23;20012;-95
2021/11/19 10:21:06;;;;;;;8.90;5.50;;;;;;;;;;6222766;23;20001;-95
2021/11/19 10:23:35;;;;;;;12.45;5.63;;;;;;;;;;6196366;23;20004;-95
2021/11/19 10:26:10;;;;;;;8.45;5.22;;;;;;;;;;6194924;23;20004;-89
2021/11/19 10:28:39;;;;;;;10.65;5.47;;;;;;;;;;6192764;23;20005;-93
2021/11/19 10:31:06;;;;;;;9.15;4.93;;;;;;;;;;6191590;23;20080;-96
2021/11/19 10:33:53;;;;;;;14.98;4.80;;;;;;;;;;6192629;23;20011;-95
2021/11/19 10:36:26;;;;;;;7.93;4.60;;;;;;;;;;6162188;23;20004;-95
2021/11/19 10:39:11;;;;;;;8.48;4.75;;;;;;;;;;6192309;23;20009;-95
2021/11/19 10:41:46;;;;;;;9.15;4.47;;;;;;;;;;6192014;23;20430;-95
2021/11/19 10:44:31;;;;;;;6.22;3.25;;;;;;;;;;6192325;23;20067;-96
2021/11/19 10:47:07;;;;;;;6.53;3.50;;;;;;;;;;6192055;23;20004;-96
2021/11/19 10:49:36;;;;;;;6.82;3.20;;;;;;;;;;6192107;23;20035;-96
2021/11/19 10:52:02;;;;;;;6.30;3.05;;;;;;;;;;6192195;23;20012;-96
2021/11/19 10:54:32;;;;;;;7.25;3.55;;;;;;;;;;6192463;23;20001;-96
2021/11/19 10:57:04;;;;;;;6.28;3.10;;;;;;;;;;6192572;23;20386;-96
2021/11/19 10:59:39;;;;;;;7.20;3.00;;;;;;;;;;6192432;23;20054;-96
2021/11/19 11:02:12;;;;;;;6.53;3.28;;;;;;;;;;6193022;23;20087;-96
2021/11/19 11:04:49;;;;;;;6.97;3.17;;;;;;;;;;6193755;23;20008;-96
2021/11/19 11:07:25;;;;;;;5.25;2.40;;;;;;;;;;6193113;23;20156;-96
2021/11/19 11:09:58;;;;;;;5.35;2.97;;;;;;;;;;6191923;23;20021;-96
2021/11/19 11:12:29;;;;;;;7.22;3.42;;;;;;;;;;6192324;23;20010;-95
2021/11/19 11:15:01;;;;;;;8.73;3.55;;;;;;;;;;6191542;23;20001;-94
2021/11/19 11:17:33;;;;;;;11.65;3.33;;;;;;;;;;6191315;23;20017;-94
2021/11/19 11:20:02;;;;;;;7.32;3.60;;;;;;;;;;6191578;23;20005;-92
2021/11/19 11:22:34;;;;;;;7.05;3.95;;;;;;;;;;6192384;23;20005;-94
2021/11/19 11:25:13;;;;;;;7.20;3.97;;;;;;;;;;6191218;23;20445;-94
2021/11/19 11:27:58;;;;;;;6.10;3.67;;;;;;;;;;6191365;23;20074;-95
2021/11/19 11:30:47;;;;;;;7.13;4.13;;;;;;;;;;6191587;23;20005;-95
2021/11/19 11:33:17;;;;;;;7.78;4.13;;;;;;;;;;6183548;23;20009;-94
2021/11/19 11:35:55;;;;;;;8.63;4.20;;;;;;;;;;6191615;23;20430;-95
2021/11/19 11:38:27;;;;;;;7.78;4.25;;;;;;;;;;6191696;23;20072;-94
2021/11/19 11:41:01;;;;;;;7.70;4.10;;;;;;;;;;6191566;23;20008;-95
2021/11/19 11:43:28;;;;;;;8.00;4.28;;;;;;;;;;6217814;23;20012;-90
2021/11/19 11:45:56;;;;;;;9.77;4.55;;;;;;;;;;6189102;23;20020;-93
2021/11/19 11:48:32;;;;;;;8.70;4.57;;;;;;;;;;6190653;23;20005;-91
2021/11/19 11:50:58;;;;;;;8.25;4.65;;;;;;;;;;6191114;23;20465;-92
2021/11/19 11:53:50;;;;;;;8.50;4.75;;;;;;;;;;6218011;23;19991;-91
2021/11/19 11:56:40;;;;;;;6.32;3.72;;;;;;;;;;6194768;23;20004;-91
2021/11/19 11:59:06;;;;;;;7.20;3.70;;;;;;;;;;6207673;23;20032;-91
2021/11/19 12:01:44;;;;;;;6.53;3.80;;;;;;;;;;6217494;23;20005;-90
2021/11/19 12:04:13;;;;;;;6.55;3.55;;;;;;;;;;6190602;23;20009;-92
2021/11/19 12:07:02;;;;;;;5.90;3.53;;;;;;;;;;6190362;23;20012;-91
2021/11/19 12:09:35;;;;;;;7.45;4.13;;;;;;;;;;6190538;23;20025;-91
2021/11/19 12:12:17;;;;;;;7.30;3.97;;;;;;;;;;6194175;23;20036;-95
2021/11/19 12:14:56;;;;;;;7.32;4.72;;;;;;;;;;6190388;23;20039;-95
2021/11/19 12:17:23;;;;;;;7.43;4.28;;;;;;;;;;6192525;23;20052;-94
2021/11/19 12:19:55;;;;;;;8.02;4.63;;;;;;;;;;6193626;23;20088;-96
2021/11/19 12:22:40;;;;;;;7.53;4.10;;;;;;;;;;6193903;23;20124;-94
2021/11/19 12:25:09;;;;;;;7.70;4.47;;;;;;;;;;6193333;23;20024;-96
2021/11/19 12:27:43;;;;;;;9.10;4.55;;;;;;;;;;6194469;23;20009;-95
2021/11/19 12:30:09;;;;;;;;;;;;;;;;;;6193814;23;20426;-94
2021/11/19 12:32:39;;;;;;;7.93;4.55;;;;;;;;;;6193282;23;19930;-94
2021/11/19 12:35:13;;;;;;;7.90;5.00;;;;;;;;;;6193093;23;20027;-95
2021/11/19 12:37:52;;;;;;;8.98;4.95;;;;;;;;;;6193486;23;20008;-95
2021/11/19 12:40:21;;;;;;;8.07;4.63;;;;;;;;;;6193317;23;20088;-95
2021/11/19 12:42:58;;;;;;;9.15;4.90;;;;;;;;;;6192573;23;20011;-92
2021/11/19 12:45:27;;;;;;;7.15;4.30;;;;;;;;;;6193346;23;20007;-96
2021/11/19 12:47:57;;;;;;;6.82;4.47;;;;;;;;;;6193790;23;20008;-95
2021/11/19 12:50:32;;;;;;;8.18;4.60;;;;;;;;;;6193865;23;20481;-95
2021/11/19 12:53:07;;;;;;;8.48;4.63;;;;;;;;;;6220894;23;20001;-95
2021/11/19 12:55:38;;;;;;;9.20;5.07;;;;;;;;;;6194292;23;20039;-95
2021/11/19 12:58:15;;;;;;;9.65;5.13;;;;;;;;;;6192942;23;20020;-94
2021/11/19 13:00:50;;;;;;;7.72;4.75;;;;;;;;;;6195236;23;20009;-95
2021/11/19 13:03:17;;;;;;;8.05;5.10;;;;;;;;;;6192411;23;20001;-91
2021/11/19 13:06:02;;;;;;;7.65;4.40;;;;;;;;;;6192101;23;20016;-92
2021/11/19 13:08:47;;;;;;;7.43;4.78;;;;;;;;;;6196769;23;20016;-91
2021/11/19 13:11:28;;;;;;;11.43;4.97;;;;;;;;;;6222262;23;20015;-91
2021/11/19 13:14:24;;;;;;;8.50;4.97;;;;;;;;;;6223342;23;20008;-92
2021/11/19 13:16:58;;;;;;;6.63;4.10;;;;;;;;;;6222557;23;20043;-92
2021/11/19 13:19:32;;;;;;;13.25;4.95;;;;;;;;;;6222770;23;20032;-92
2021/11/19 13:22:11;;;;;;;12.30;5.28;;;;;;;;;;6223758;23;20007;-92
2021/11/19 13:24:39;;;;;;;8.77;4.70;;;;;;;;;;6223305;23;20008;-92
2021/11/19 13:27:08;;;;;;;7.82;4.85;;;;;;;;;;6222269;23;20061;-91
2021/11/19 13:29:42;;;;;;;9.48;5.40;;;;;;;;;;6223174;23;20130;-91
2021/11/19 13:32:20;;;;;;;8.60;4.40;;;;;;;;;;6223500;23;20314;-92
2021/11/19 13:35:28;;;;;;;9.40;4.65;;;;;;;;;;6250834;23;20020;-91
2021/11/19 13:38:04;;;;;;;7.82;4.30;;;;;;;;;;6189411;23;20009;-92
2021/11/19 13:40:34;;;;;;;8.02;4.78;;;;;;;;;;6221885;23;20483;-91
2021/11/19 13:43:02;;;;;;;8.75;4.00;;;;;;;;;;6223033;23;20091;-91
2021/11/19 13:45:29;;;;;;;7.70;4.43;;;;;;;;;;6222339;23;20004;-92
2021/11/19 13:48:13;;;;;;;9.57;4.30;;;;;;;;;;6222575;23;20015;-90
2021/11/19 13:50:55;;;;;;;8.77;4.50;;;;;;;;;;6223168;23;20004;-91
2021/11/19 13:53:23;;;;;;;7.50;4.22;;;;;;;;;;6222719;23;20011;-92
2021/11/19 13:55:56;;;;;;;9.02;4.60;;;;;;;;;;6222348;23;20437;-91
2021/11/19 13:58:34;;;;;;;7.47;4.00;;;;;;;;;;6221996;23;20031;-93
2021/11/19 14:01:19;;;;;;;8.63;4.05;;;;;;;;;;6222834;23;20011;-94
2021/11/19 14:03:49;;;;;;;7.20;4.28;;;;;;;;;;6222185;23;20441;-93
2021/11/19 14:06:22;;;;;;;7.68;4.45;;;;;;;;;;6223439;23;20054;-93
2021/11/19 14:09:00;;;;;;;6.70;4.32;;;;;;;;;;6214235;23;20084;-94
2021/11/19 14:11:28;;;;;;;9.25;3.90;;;;;;;;;;6193251;23;20024;-94
2021/11/19 14:13:55;;;;;;;10.07;4.88;;;;;;;;;;6219483;23;20423;-93
2021/11/19 14:16:21;;;;;;;7.35;3.70;;;;;;;;;;6192375;23;20124;-92
2021/11/19 14:19:02;;;;;;;8.02;3.90;;;;;;;;;;6192027;23;20008;-92
2021/11/19 14:24:27;;;;;;;7.22;4.03;;;;;;;;;;6218523;23;20450;-92
2021/11/19 14:27:04;;;;;;;9.40;3.92;;;;;;;;;;6218734;23;20005;-93
2021/11/19 14:29:32;;;;;;;8.05;4.57;;;;;;;;;;6194129;23;20001;-93
2021/11/19 14:32:02;;;;;;;9.13;3.90;;;;;;;;;;6192271;23;20004;-94
2021/11/19 14:34:37;;;;;;;4.90;3.40;;;;;;;;;;6192303;23;20001;-95
2021/11/19 14:37:13;;;;;;;6.97;3.15;;;;;;;;;;6192191;23;20051;-95
2021/11/19 14:39:40;;;;;;;5.50;3.25;;;;;;;;;;6192285;23;20007;-95
2021/11/19 14:42:06;;;;;;;6.18;3.53;;;;;;;;;;6192134;23;20008;-95
2021/11/19 14:44:41;;;;;;;5.13;3.13;;;;;;;;;;6192573;23;20070;-95
2021/11/19 14:47:28;;;;;;;5.82;3.17;;;;;;;;;;6192202;23;20058;-96
2021/11/19 14:53:04;;;;;;;7.60;2.42;;;;;;;;;;6218127;23;20015;-93
2021/11/19 14:55:31;;;;;;;3.33;2.03;;;;;;;;;;6192622;23;20440;-95
2021/11/19 14:58:05;;;;;;;4.60;2.55;;;;;;;;;;6192237;23;20019;-93
2021/11/19 15:00:37;;;;;;;4.75;2.80;;;;;;;;;;6192203;23;20087;-95
2021/11/19 15:03:06;;;;;;;4.35;2.70;;;;;;;;;;6191748;23;20012;-94
2021/11/19 15:05:40;;;;;;;4.25;2.40;;;;;;;;;;6192504;23;20362;-95
2021/11/19 15:08:18;;;;;;;4.57;2.40;;;;;;;;;;6193406;23;20043;-95
2021/11/19 15:10:56;;;;;;;4.07;2.08;;;;;;;;;;6218313;23;20027;-94
2021/11/19 15:13:29;;;;;;;6.03;3.10;;;;;;;;;;6191701;23;20062;-94
2021/11/19 15:15:58;;;;;;;7.70;3.42;;;;;;;;;;6216838;23;20001;-95
2021/11/19 15:18:39;;;;;;;6.47;3.85;;;;;;;;;;6216120;23;20390;-93
2021/11/19 15:21:25;;;;;;;6.50;4.40;;;;;;;;;;6220605;23;20001;-94
2021/11/19 15:24:01;;;;;;;7.47;4.07;;;;;;;;;;6217160;23;20011;-96
2021/11/19 15:26:29;;;;;;;6.68;4.13;;;;;;;;;;6219163;23;20004;-95
2021/11/19 15:29:06;;;;;;;7.75;4.25;;;;;;;;;;6218530;23;20009;-93
2021/11/19 15:31:56;;;;;;;7.45;4.22;;;;;;;;;;6218079;23;20095;-94